Time;durP1;ratioP1;P1;durP2;ratioP2;P2;SDS_P1;SDS_P2;PMS_P1;PMS_P2;Temp;Humidity;BMP_temperature;BMP_pressure;BME280_temperature;BME280_humidity;BME280_pressure;Samples;Min_cycle;Max_cycle;Signal;HPM_P1;HPM_P2
2023/10/02 00:05:07;;;;;;;14.40;10.05;;;;;;;17.79;100.00;101699.59;4821890;29;20054;-70
2023/10/02 00:07:42;;;;;;;12.32;9.23;;;;;;;17.67;100.00;101704.78;4826446;29;20062;-70
2023/10/02 00:10:16;;;;;;;13.57;9.50;;;;;;;17.80;100.00;101700.44;4825532;29;20065;-70
2023/10/02 00:12:58;;;;;;;13.57;9.15;;;;;;;17.81;100.00;101705.69;4825383;29;20078;-70
2023/10/02 00:15:26;;;;;;;12.57;10.10;;;;;;;17.67;100.00;101710.31;4825501;29;20050;-70
2023/10/02 00:17:57;;;;;;;12.60;9.75;;;;;;;17.53;100.00;101704.72;4825946;29;20419;-70
2023/10/02 00:20:26;;;;;;;14.23;10.65;;;;;;;17.46;100.00;101713.41;4825498;29;20054;-70
2023/10/02 00:22:55;;;;;;;12.60;9.85;;;;;;;17.46;100.00;101708.69;4825997;29;20055;-70
2023/10/02 00:25:27;;;;;;;13.40;10.20;;;;;;;17.41;100.00;101706.00;4825089;29;20075;-70
2023/10/02 00:27:56;;;;;;;11.02;8.93;;;;;;;17.38;100.00;101712.16;4825855;29;20533;-70
2023/10/02 00:30:35;;;;;;;13.77;10.68;;;;;;;17.36;100.00;101714.41;4809723;29;20050;-70
2023/10/02 00:33:05;;;;;;;11.48;8.93;;;;;;;17.33;100.00;101706.69;4810009;29;20410;-70
2023/10/02 00:35:50;;;;;;;11.93;9.25;;;;;;;17.35;100.00;101717.44;4824904;29;20063;-70
2023/10/02 00:38:19;;;;;;;13.70;10.13;;;;;;;17.45;100.00;101707.06;4825159;29;20073;-70
2023/10/02 00:40:47;;;;;;;14.88;10.55;;;;;;;17.42;100.00;101704.91;4826015;29;20402;-70
2023/10/02 00:46:02;;;;;;;12.75;10.50;;;;;;;17.46;100.00;101705.91;4825228;29;20066;-70
2023/10/02 00:48:33;;;;;;;12.90;9.98;;;;;;;17.40;100.00;101714.63;4808802;29;20066;-70
2023/10/02 00:51:06;;;;;;;12.10;9.70;;;;;;;17.61;100.00;101715.13;4809321;29;20371;-70
2023/10/02 00:53:47;;;;;;;15.07;10.00;;;;;;;17.47;100.00;101709.53;4809466;29;20042;-70
2023/10/02 00:56:28;;;;;;;12.95;8.73;;;;;;;17.33;100.00;101709.44;4822691;29;20065;-70
2023/10/02 00:59:01;;;;;;;14.10;10.05;;;;;;;17.23;100.00;101707.66;4809376;29;20084;-70
2023/10/02 01:01:31;;;;;;;14.60;10.03;;;;;;;17.18;100.00;101702.19;4808907;29;20051;-70
2023/10/02 01:04:10;;;;;;;12.32;10.15;;;;;;;17.18;100.00;101702.19;4824284;29;20050;-70
2023/10/02 01:09:34;;;;;;;15.20;10.00;;;;;;;17.11;100.00;101702.53;4825114;29;20062;-70
2023/10/02 01:12:02;;;;;;;14.23;10.82;;;;;;;17.08;100.00;101702.31;4825087;29;20490;-70
2023/10/02 01:17:20;;;;;;;15.55;10.52;;;;;;;17.07;100.00;101701.50;4807096;29;20057;-70
2023/10/02 01:19:57;;;;;;;13.50;11.05;;;;;;;17.06;100.00;101700.69;4806661;29;20055;-70
2023/10/02 01:22:28;;;;;;;14.15;10.48;;;;;;;17.07;100.00;101704.28;4813562;29;20053;-70
2023/10/02 01:25:12;;;;;;;16.35;10.52;;;;;;;17.06;100.00;101699.88;4808754;29;20058;-70
2023/10/02 01:27:47;;;;;;;13.40;9.40;;;;;;;17.10;100.00;101700.91;4824702;29;20092;-70
2023/10/02 01:30:21;;;;;;;15.35;10.48;;;;;;;17.08;100.00;101692.09;4824236;29;20054;-70
2023/10/02 01:33:12;;;;;;;14.40;10.48;;;;;;;17.09;100.00;101690.97;4824850;29;20063;-70
2023/10/02 01:35:48;;;;;;;13.82;10.50;;;;;;;17.06;100.00;101686.84;4807254;29;20499;-70
2023/10/02 01:38:46;;;;;;;16.77;10.88;;;;;;;17.03;100.00;101692.16;4823927;29;20042;-70
2023/10/02 01:41:14;;;;;;;19.83;11.02;;;;;;;17.01;100.00;101683.31;4804814;29;20054;-70
2023/10/02 01:43:49;;;;;;;13.18;10.07;;;;;;;17.05;100.00;101684.38;4824540;29;20038;-70
2023/10/02 01:46:17;;;;;;;15.18;10.05;;;;;;;17.10;100.00;101681.53;4808347;29;20058;-70
2023/10/02 01:48:50;;;;;;;16.40;10.85;;;;;;;17.09;100.00;101687.38;4807931;29;20061;-70
2023/10/02 01:51:20;;;;;;;13.55;10.00;;;;;;;17.10;100.00;101684.31;4824481;29;20062;-70
2023/10/02 01:53:56;;;;;;;16.23;11.00;;;;;;;17.09;100.00;101681.84;4824565;29;20525;-70
2023/10/02 01:56:29;;;;;;;15.32;10.68;;;;;;;17.04;100.00;101686.34;4824458;29;20406;-70
2023/10/02 01:59:09;;;;;;;12.85;10.02;;;;;;;16.96;100.00;101686.13;4807897;29;20051;-70
2023/10/02 02:01:52;;;;;;;15.20;10.70;;;;;;;17.00;100.00;101681.63;4808026;29;20494;-70
2023/10/02 02:04:23;;;;;;;11.90;9.65;;;;;;;17.28;100.00;101679.09;4823601;29;20457;-70
2023/10/02 02:06:53;;;;;;;13.90;10.35;;;;;;;17.44;100.00;101680.50;4823688;29;20046;-70
2023/10/02 02:09:23;;;;;;;14.77;10.65;;;;;;;17.52;100.00;101679.00;4824078;29;20069;-70
2023/10/02 02:12:05;;;;;;;12.68;10.65;;;;;;;17.40;100.00;101671.16;4823649;29;20061;-69
2023/10/02 02:14:51;;;;;;;15.13;10.73;;;;;;;17.37;100.00;101682.00;4807427;29;20063;-70
2023/10/02 02:17:25;;;;;;;14.15;10.82;;;;;;;17.11;100.00;101677.66;4823216;29;20055;-70
2023/10/02 02:19:59;;;;;;;14.25;10.90;;;;;;;17.01;100.00;101669.50;4824167;29;20070;-70
2023/10/02 02:22:32;;;;;;;13.80;9.77;;;;;;;16.94;100.00;101678.13;4823839;29;20058;-70
2023/10/02 02:25:01;;;;;;;16.08;10.75;;;;;;;17.05;100.00;101674.16;4822830;29;20050;-70
2023/10/02 02:27:28;;;;;;;13.60;10.20;;;;;;;17.07;100.00;101676.63;4807714;29;20581;-70
2023/10/02 02:29:58;;;;;;;13.38;10.45;;;;;;;17.04;100.00;101675.28;4823310;29;20395;-70
2023/10/02 02:32:52;;;;;;;14.20;10.45;;;;;;;16.96;100.00;101675.06;4823358;29;20406;-70
2023/10/02 02:35:21;;;;;;;12.52;9.75;;;;;;;17.11;100.00;101680.41;4807047;29;20061;-70
2023/10/02 02:37:50;;;;;;;14.23;10.68;;;;;;;16.95;100.00;101665.16;4807828;29;20058;-70
2023/10/02 02:40:28;;;;;;;12.23;10.55;;;;;;;16.86;100.00;101671.31;4807379;29;20050;-70
2023/10/02 02:42:56;;;;;;;12.73;10.38;;;;;;;16.79;100.00;101670.88;4823788;29;20078;-70
2023/10/02 02:45:28;;;;;;;12.63;9.90;;;;;;;16.84;100.00;101679.09;4822927;29;20058;-70
2023/10/02 02:48:04;;;;;;;13.07;10.35;;;;;;;16.82;100.00;101673.03;4824057;29;20055;-70
2023/10/02 02:50:35;;;;;;;15.40;10.75;;;;;;;16.95;100.00;101674.25;4823736;29;20399;-70
2023/10/02 02:53:21;;;;;;;13.80;10.32;;;;;;;16.86;100.00;101674.09;4823207;29;20054;-70
2023/10/02 02:56:28;;;;;;;13.65;10.15;;;;;;;16.98;100.00;101681.13;4822770;29;20506;-70
2023/10/02 02:58:55;;;;;;;14.95;10.45;;;;;;;16.96;100.00;101678.66;4805360;29;20055;-70
2023/10/02 03:01:24;;;;;;;13.60;10.50;;;;;;;16.87;100.00;101678.47;4822547;29;20490;-70
2023/10/02 03:04:11;;;;;;;12.35;10.77;;;;;;;16.76;100.00;101679.72;4806997;29;20490;-70
2023/10/02 03:06:41;;;;;;;14.32;10.48;;;;;;;16.62;100.00;101674.91;4805159;29;20411;-70
2023/10/02 03:09:09;;;;;;;14.40;10.68;;;;;;;16.58;100.00;101682.19;4821768;29;20062;-70
2023/10/02 03:11:38;;;;;;;12.63;10.85;;;;;;;16.59;100.00;101683.81;4822990;29;20058;-69
2023/10/02 03:14:16;;;;;;;15.98;10.90;;;;;;;16.57;100.00;101677.75;4822719;29;20046;-70
2023/10/02 03:16:45;;;;;;;12.40;10.60;;;;;;;16.55;100.00;101674.47;4805312;29;20055;-70
2023/10/02 03:19:16;;;;;;;15.10;10.10;;;;;;;16.56;100.00;101675.28;4804896;29;20063;-70
2023/10/02 03:21:44;;;;;;;15.02;10.93;;;;;;;16.57;100.00;101680.50;4804919;29;20047;-70
2023/10/02 03:24:18;;;;;;;13.32;10.25;;;;;;;16.52;100.00;101681.41;4808751;29;20055;-70
2023/10/02 03:26:52;;;;;;;13.77;10.85;;;;;;;16.55;100.00;101690.19;4823404;29;20057;-70
2023/10/02 03:29:22;;;;;;;14.70;11.23;;;;;;;16.53;100.00;101683.03;4822152;29;20062;-70
2023/10/02 03:31:51;;;;;;;11.70;10.30;;;;;;;16.54;100.00;101692.16;4822749;29;20046;-70
2023/10/02 03:34:27;;;;;;;14.65;10.65;;;;;;;16.52;100.00;101691.63;4822517;29;20051;-70
2023/10/02 03:37:24;;;;;;;12.65;10.02;;;;;;;16.50;100.00;101685.56;4823304;29;20058;-70
2023/10/02 03:42:25;;;;;;;14.88;10.52;;;;;;;16.56;100.00;101684.38;4822928;29;20542;-71
2023/10/02 03:44:56;;;;;;;14.80;10.60;;;;;;;16.45;100.00;101689.22;4821953;29;20051;-70
2023/10/02 03:47:33;;;;;;;16.33;10.65;;;;;;;16.45;100.00;101682.84;4823222;29;20054;-71
2023/10/02 03:50:06;;;;;;;16.50;10.40;;;;;;;16.41;100.00;101687.34;4806754;29;20498;-70
2023/10/02 03:52:34;;;;;;;13.70;10.05;;;;;;;16.43;100.00;101687.88;4822552;29;20520;-70
2023/10/02 03:55:17;;;;;;;13.98;11.23;;;;;;;16.43;100.00;101685.09;4822205;29;20043;-70
2023/10/02 03:57:49;;;;;;;11.57;10.23;;;;;;;16.35;100.00;101681.88;4822792;29;20418;-70
2023/10/02 04:00:19;;;;;;;13.45;10.07;;;;;;;16.38;100.00;101680.47;4804253;29;20430;-70
2023/10/02 04:02:50;;;;;;;14.73;11.10;;;;;;;16.33;100.00;101688.78;4804406;29;20062;-70
2023/10/02 04:05:32;;;;;;;14.75;10.05;;;;;;;16.31;100.00;101680.78;4812349;29;20054;-70
2023/10/02 04:08:14;;;;;;;14.70;10.90;;;;;;;16.26;100.00;101683.59;4815243;29;20066;-70
2023/10/02 04:10:55;;;;;;;13.88;10.18;;;;;;;16.32;100.00;101687.97;4822173;29;20506;-70
2023/10/02 04:13:31;;;;;;;14.95;10.88;;;;;;;16.46;100.00;101684.50;4807650;29;20502;-70
2023/10/02 04:19:02;;;;;;;15.40;10.82;;;;;;;16.30;100.00;101690.19;4806615;29;20121;-70
2023/10/02 04:21:33;;;;;;;14.30;10.70;;;;;;;16.25;100.00;101680.03;4822518;29;20054;-70
2023/10/02 04:24:07;;;;;;;13.80;10.73;;;;;;;16.22;100.00;101682.53;4821892;29;20050;-70
2023/10/02 04:26:36;;;;;;;16.13;10.52;;;;;;;16.18;100.00;101687.00;4824332;29;21918;-70
2023/10/02 04:34:46;;;;;;;15.25;12.07;;;;;;;16.11;100.00;101693.69;4838889;29;20050;-70
2023/10/02 04:37:20;;;;;;;15.45;11.48;;;;;;;15.99;100.00;101701.53;4822688;29;20050;-70
2023/10/02 04:42:57;;;;;;;12.80;10.77;;;;;;;15.99;100.00;101696.81;4807649;29;20062;-70
2023/10/02 04:45:26;;;;;;;21.27;12.30;;;;;;;16.02;100.00;101698.19;4824041;29;20058;-70
2023/10/02 04:47:54;;;;;;;14.98;11.20;;;;;;;15.97;100.00;101687.19;4825442;29;20066;-70
2023/10/02 04:52:55;;;;;;;18.77;11.43;;;;;;;15.88;100.00;101689.72;4824783;29;20049;-70
2023/10/02 04:55:31;;;;;;;16.17;12.23;;;;;;;15.86;100.00;101691.94;4824054;29;20685;-70
2023/10/02 04:58:08;;;;;;;18.38;11.38;;;;;;;15.87;100.00;101693.59;4823485;29;20057;-71
2023/10/02 05:01:15;;;;;;;16.85;11.57;;;;;;;15.92;100.00;101698.22;4823945;29;20046;-70
2023/10/02 05:03:28;;;;;;;15.18;10.00;;;;;;;15.85;100.00;101707.66;4824583;29;20050;-70
2023/10/02 05:06:00;;;;;;;14.18;11.68;;;;;;;15.86;100.00;101714.03;4824407;29;20061;-70
2023/10/02 05:09:19;;;;;;;14.50;10.93;;;;;;;15.89;100.00;101710.69;4825240;29;20501;-70
2023/10/02 05:11:50;;;;;;;15.18;10.70;;;;;;;15.91;100.00;101711.22;4824964;29;20054;-71
2023/10/02 05:14:26;;;;;;;16.08;11.02;;;;;;;16.03;100.00;101710.06;4825049;29;20533;-71
2023/10/02 05:17:17;;;;;;;15.45;11.30;;;;;;;16.07;100.00;101711.13;4824949;29;20065;-70
2023/10/02 05:19:57;;;;;;;15.75;10.80;;;;;;;16.08;100.00;101713.59;4825037;29;20062;-70
2023/10/02 05:22:27;;;;;;;18.35;12.15;;;;;;;16.04;100.00;101709.75;4824837;29;20065;-71
2023/10/02 05:24:59;;;;;;;16.02;11.52;;;;;;;16.01;100.00;101720.56;4824865;29;20077;-71
2023/10/02 05:27:32;;;;;;;15.77;11.98;;;;;;;16.02;100.00;101722.22;4825154;29;20058;-71
2023/10/02 05:30:05;;;;;;;15.88;11.60;;;;;;;16.16;100.00;101722.34;4824528;29;20066;-71
2023/10/02 05:32:35;;;;;;;17.37;11.77;;;;;;;16.12;100.00;101717.44;4825299;29;20054;-70
2023/10/02 05:35:16;;;;;;;16.80;12.18;;;;;;;16.16;100.00;101725.13;4824925;29;20054;-71
2023/10/02 05:37:45;;;;;;;20.92;12.73;;;;;;;16.27;100.00;101723.09;4824790;29;20069;-71
2023/10/02 05:50:57;;;;;;;18.45;11.80;;;;;;;16.60;100.00;101753.69;4824667;29;20058;-70
2023/10/02 05:53:29;;;;;;;17.80;12.15;;;;;;;16.58;100.00;101748.50;4823073;29;20062;-71
2023/10/02 05:56:04;;;;;;;15.00;12.13;;;;;;;16.62;100.00;101751.50;4823873;29;20062;-70
2023/10/02 05:58:33;;;;;;;17.98;11.70;;;;;;;16.71;100.00;101751.69;4820121;29;20054;-70
2023/10/02 06:01:06;;;;;;;15.55;11.45;;;;;;;16.97;100.00;101765.19;4818090;29;20057;-70
2023/10/02 06:03:37;;;;;;;15.98;11.77;;;;;;;17.23;100.00;101764.91;4819362;29;20058;-70
2023/10/02 06:06:21;;;;;;;16.30;11.77;;;;;;;17.19;100.00;101767.44;4824805;29;20055;-70
2023/10/02 06:08:56;;;;;;;17.98;11.85;;;;;;;17.25;100.00;101777.31;4808773;29;20050;-70
2023/10/02 06:11:31;;;;;;;16.77;11.30;;;;;;;17.49;100.00;101775.66;4802515;29;20062;-80
2023/10/02 06:14:12;;;;;;;20.60;12.55;;;;;;;17.82;100.00;101784.84;4790084;29;20050;-80
2023/10/02 06:16:42;;;;;;;14.70;11.95;;;;;;;18.13;100.00;101780.78;4795935;29;20050;-79
2023/10/02 06:19:14;;;;;;;14.90;11.25;;;;;;;18.40;100.00;101780.06;4788551;29;20054;-80
2023/10/02 06:22:04;;;;;;;15.70;10.70;;;;;;;18.67;100.00;101772.09;4776771;29;20069;-80
2023/10/02 06:24:33;;;;;;;15.98;11.30;;;;;;;18.79;98.57;101785.47;4771402;29;20054;-81
2023/10/02 06:27:07;;;;;;;16.45;12.75;;;;;;;18.78;98.69;101790.16;4787252;29;20058;-81
2023/10/02 06:29:35;;;;;;;16.42;11.15;;;;;;;18.93;97.81;101789.06;4777068;29;20061;-81
2023/10/02 06:32:11;;;;;;;16.55;11.52;;;;;;;19.05;96.27;101788.59;4786397;29;20055;-81
2023/10/02 06:34:43;;;;;;;19.08;12.68;;;;;;;19.03;96.87;101792.78;4802786;29;20062;-81
2023/10/02 06:37:24;;;;;;;16.00;11.85;;;;;;;19.23;95.95;101797.09;4792307;29;20050;-81
2023/10/02 06:40:06;;;;;;;16.17;11.40;;;;;;;19.31;95.27;101807.47;4778311;29;20054;-81
2023/10/02 06:42:48;;;;;;;19.27;11.65;;;;;;;19.36;94.84;101797.41;4824207;29;20062;-81
2023/10/02 06:45:20;;;;;;;18.88;11.55;;;;;;;19.28;95.77;101801.72;4824152;29;20061;-81
2023/10/02 06:47:50;;;;;;;21.33;12.32;;;;;;;19.46;95.16;101805.50;4824199;29;20043;-82
2023/10/02 06:50:28;;;;;;;18.90;12.15;;;;;;;19.54;94.02;101802.00;4824145;29;20053;-81
2023/10/02 06:53:01;;;;;;;18.08;10.88;;;;;;;19.65;93.90;101804.53;4824396;29;20050;-81
2023/10/02 06:55:32;;;;;;;16.55;11.68;;;;;;;19.71;93.37;101808.84;4824977;29;20046;-81
2023/10/02 06:58:01;;;;;;;24.48;11.75;;;;;;;19.78;93.33;101814.78;4825242;29;20061;-81
2023/10/02 07:00:54;;;;;;;15.13;10.57;;;;;;;19.87;93.15;101812.09;4824748;29;20054;-81
2023/10/02 07:03:17;;;;;;;17.38;11.15;;;;;;;19.80;93.63;101814.47;4824617;29;20054;-81
2023/10/02 07:05:48;;;;;;;16.52;12.23;;;;;;;19.82;93.13;101807.47;4824814;29;20055;-82
2023/10/02 07:08:22;;;;;;;18.88;10.80;;;;;;;19.97;92.03;101813.81;4825282;29;20063;-82
2023/10/02 07:10:51;;;;;;;;;;;;;;;20.05;91.55;101818.66;4824758;29;20065;-82
2023/10/02 07:13:23;;;;;;;18.00;11.05;;;;;;;20.12;91.75;101818.19;4824218;29;19936;-81
2023/10/02 07:15:57;;;;;;;18.55;11.57;;;;;;;20.17;91.06;101812.50;4824948;29;20046;-82
2023/10/02 07:18:37;;;;;;;;;;;;;;;20.14;91.05;101818.72;4825218;29;20053;-82
2023/10/02 07:21:09;;;;;;;16.75;11.07;;;;;;;20.26;90.25;101818.13;4825207;29;19929;-82
2023/10/02 07:23:38;;;;;;;17.23;11.30;;;;;;;20.39;89.29;101824.78;4814340;29;20047;-82
2023/10/02 07:26:15;;;;;;;17.30;11.25;;;;;;;20.45;88.15;101817.09;4826876;29;20050;-82
2023/10/02 07:28:52;;;;;;;15.90;10.63;;;;;;;20.59;87.57;101826.19;4823883;29;20050;-82
2023/10/02 07:31:22;;;;;;;16.52;9.80;;;;;;;20.66;87.07;101826.56;4823475;29;20058;-82
2023/10/02 07:33:55;;;;;;;14.10;10.23;;;;;;;20.79;85.92;101818.44;4823336;29;20061;-82
2023/10/02 07:36:26;;;;;;;18.83;10.88;;;;;;;20.89;86.50;101829.31;4823543;29;20050;-82
2023/10/02 07:38:56;;;;;;;16.63;9.98;;;;;;;20.85;86.59;101822.75;4823371;29;20054;-82
2023/10/02 07:41:24;;;;;;;17.63;11.38;;;;;;;20.89;87.33;101829.31;4823437;29;20054;-82
2023/10/02 07:43:54;;;;;;;15.50;10.55;;;;;;;21.01;85.49;101828.72;4807274;29;20394;-82
2023/10/02 07:46:23;;;;;;;16.00;10.35;;;;;;;21.01;85.39;101825.13;4807294;29;20051;-82
2023/10/02 07:48:57;;;;;;;16.52;10.02;;;;;;;21.10;84.48;101834.31;4807973;29;20058;-82
2023/10/02 07:51:35;;;;;;;14.18;10.57;;;;;;;21.15;84.50;101831.38;4823469;29;20070;-82
2023/10/02 07:54:13;;;;;;;15.82;11.02;;;;;;;21.14;86.48;101837.25;4823538;29;20061;-82
2023/10/02 07:56:47;;;;;;;14.90;10.13;;;;;;;21.21;84.68;101830.09;4823338;29;20054;-82
2023/10/02 07:59:18;;;;;;;;;;;;;;;21.31;85.18;101834.53;4823701;29;20058;-82
2023/10/02 08:01:46;;;;;;;17.10;10.73;;;;;;;21.43;83.14;101831.13;4823374;29;19928;-82
2023/10/02 08:04:15;;;;;;;19.67;10.80;;;;;;;21.50;83.89;101833.44;4824095;29;20046;-82
2023/10/02 08:06:45;;;;;;;13.77;10.13;;;;;;;21.50;81.73;101832.63;4808229;29;20050;-82
2023/10/02 08:09:38;;;;;;;13.05;9.13;;;;;;;21.55;81.66;101835.25;4824232;29;20073;-82
2023/10/02 08:12:08;;;;;;;15.50;9.38;;;;;;;21.67;80.43;101843.81;4824184;29;20058;-82
2023/10/02 08:14:42;;;;;;;15.07;8.88;;;;;;;21.74;80.93;101841.38;4808074;29;20077;-82
2023/10/02 08:17:21;;;;;;;12.18;9.07;;;;;;;21.79;80.26;101836.81;4811336;29;20059;-82
2023/10/02 08:19:54;;;;;;;14.85;10.85;;;;;;;21.88;80.19;101841.22;4827266;29;20077;-82
2023/10/02 08:22:35;;;;;;;14.15;10.02;;;;;;;21.94;80.07;101841.88;4826996;29;20077;-82
2023/10/02 08:25:13;;;;;;;12.40;9.00;;;;;;;22.15;78.29;101841.22;4826974;29;20054;-81
2023/10/02 08:27:57;;;;;;;14.25;8.43;;;;;;;22.15;77.80;101838.44;4827937;29;20054;-82
2023/10/02 08:30:36;;;;;;;16.03;9.97;;;;;;;22.18;77.92;101843.34;4830554;29;20050;-81
2023/10/02 08:33:06;;;;;;;17.45;10.98;;;;;;;22.18;76.86;101836.97;4840343;29;20069;-81
2023/10/02 08:35:52;;;;;;;15.55;11.52;;;;;;;22.20;77.58;101841.06;4828038;29;20062;-81
2023/10/02 08:38:24;;;;;;;14.02;10.52;;;;;;;22.19;77.59;101831.03;4826319;29;20051;-82
2023/10/02 08:41:00;;;;;;;14.07;10.30;;;;;;;22.30;78.67;101834.31;4825980;29;20062;-82
2023/10/02 08:43:41;;;;;;;18.00;11.20;;;;;;;22.31;77.41;101841.53;4825767;29;20058;-82
2023/10/02 08:46:19;;;;;;;16.38;11.82;;;;;;;22.37;77.71;101839.38;4825935;29;20046;-81
2023/10/02 08:48:54;;;;;;;15.95;11.07;;;;;;;22.46;77.47;101837.41;4809723;29;20524;-82
2023/10/02 08:51:32;;;;;;;17.10;11.60;;;;;;;22.55;77.05;101846.59;4825953;29;20058;-82
2023/10/02 08:54:08;;;;;;;15.13;10.52;;;;;;;22.64;75.78;101842.97;4825722;29;20052;-82
2023/10/02 08:56:48;;;;;;;21.30;11.60;;;;;;;22.70;77.49;101838.84;4825617;29;20061;-82
2023/10/02 08:59:26;;;;;;;18.05;11.05;;;;;;;22.71;77.98;101825.69;4807721;29;20051;-82
2023/10/02 09:02:16;;;;;;;16.30;10.85;;;;;;;22.75;76.45;101827.50;4807688;29;20059;-82
2023/10/02 09:04:55;;;;;;;19.13;11.52;;;;;;;22.85;77.05;101833.88;4807534;29;20055;-82
2023/10/02 09:07:44;;;;;;;17.77;11.88;;;;;;;22.91;76.16;101832.53;4807588;29;20077;-82
2023/10/02 09:10:25;;;;;;;16.60;10.65;;;;;;;22.99;74.95;101830.84;4807468;29;20078;-82
2023/10/02 09:13:14;;;;;;;15.70;9.93;;;;;;;23.03;74.88;101826.25;4807325;29;20059;-82
2023/10/02 09:15:53;;;;;;;16.45;9.60;;;;;;;23.12;74.31;101823.41;4807736;29;20411;-82
2023/10/02 09:18:34;;;;;;;23.38;10.68;;;;;;;23.15;73.48;101823.56;4807968;29;20046;-82
2023/10/02 09:21:16;;;;;;;15.93;10.00;;;;;;;23.30;73.42;101830.53;4808504;29;20054;-82
2023/10/02 09:23:52;;;;;;;15.93;10.13;;;;;;;23.48;72.63;101819.28;4792481;29;20054;-81
2023/10/02 09:26:24;;;;;;;13.68;9.57;;;;;;;23.51;72.25;101818.59;4807943;29;20054;-82
2023/10/02 09:29:00;;;;;;;12.50;9.43;;;;;;;23.48;72.14;101816.50;4807503;29;20102;-82
2023/10/02 09:31:34;;;;;;;16.38;10.43;;;;;;;23.50;72.06;101808.59;4807635;29;20051;-83
2023/10/02 09:34:10;;;;;;;13.85;9.45;;;;;;;23.56;71.24;101814.81;4791688;29;20059;-82
2023/10/02 09:37:11;;;;;;;16.33;9.82;;;;;;;23.56;70.51;101814.81;4794309;29;20051;-82
2023/10/02 09:40:13;;;;;;;10.70;8.27;;;;;;;23.62;70.80;101803.06;4806609;29;20043;-83
2023/10/02 09:42:48;;;;;;;12.00;8.88;;;;;;;23.76;69.39;101805.59;4792022;29;20062;-81
2023/10/02 09:45:30;;;;;;;;;;;;;;;23.75;68.96;101805.94;4808778;29;20058;-82
2023/10/02 09:48:05;;;;;;;15.40;8.73;;;;;;;23.78;69.61;101813.66;4790607;29;19929;-82
2023/10/02 09:50:46;;;;;;;12.32;8.65;;;;;;;23.93;69.14;101803.00;4806540;29;20051;-82
2023/10/02 09:53:19;;;;;;;14.32;8.70;;;;;;;23.94;69.01;101802.66;4790303;29;20399;-82
2023/10/02 09:55:55;;;;;;;14.48;8.82;;;;;;;24.10;68.32;101800.06;4806552;29;20054;-82
2023/10/02 09:58:49;;;;;;;15.63;9.07;;;;;;;24.04;67.97;101807.00;4806519;29;20375;-83
2023/10/02 10:03:55;;;;;;;12.98;8.55;;;;;;;24.13;68.36;101788.22;4806286;29;20058;-82
2023/10/02 10:06:41;;;;;;;13.43;7.82;;;;;;;24.18;68.08;101789.16;4790206;29;20054;-82
2023/10/02 10:11:44;;;;;;;12.90;9.05;;;;;;;24.37;68.23;101786.66;4806311;29;20059;-82
2023/10/02 10:14:37;;;;;;;14.55;9.25;;;;;;;24.31;65.91;101785.22;4806520;29;20062;-82
2023/10/02 10:17:14;;;;;;;14.95;9.20;;;;;;;24.36;66.31;101781.41;4806657;29;20073;-82
2023/10/02 10:20:44;;;;;;;14.60;8.38;;;;;;;24.36;66.83;101781.41;4806447;29;20047;-82
2023/10/02 10:22:50;;;;;;;12.10;8.23;;;;;;;24.49;66.14;101765.47;4796010;29;20050;-82
2023/10/02 10:25:22;;;;;;;13.80;9.15;;;;;;;24.66;66.25;101781.22;4807285;29;20063;-82
2023/10/02 10:27:58;;;;;;;11.88;8.52;;;;;;;24.72;67.90;101779.81;4791347;29;20059;-82
2023/10/02 10:30:46;;;;;;;17.35;9.13;;;;;;;24.93;67.16;101773.34;4807181;29;20059;-82
2023/10/02 10:33:20;;;;;;;14.80;8.70;;;;;;;24.87;65.80;101769.94;4806860;29;20059;-82
2023/10/02 10:35:52;;;;;;;15.75;9.07;;;;;;;24.86;64.68;101773.91;4807445;29;20051;-82
2023/10/02 10:38:28;;;;;;;15.18;9.60;;;;;;;24.99;63.31;101771.94;4806867;29;20061;-82
2023/10/02 10:41:00;;;;;;;14.48;9.60;;;;;;;24.96;63.31;101767.00;4806808;29;20050;-82
2023/10/02 10:46:21;;;;;;;15.27;9.48;;;;;;;25.06;64.59;101765.72;4821281;29;20047;-84
2023/10/02 10:49:07;;;;;;;17.05;10.80;;;;;;;25.08;64.68;101766.22;4807137;29;20069;-82
2023/10/02 10:51:38;;;;;;;18.85;11.07;;;;;;;25.02;63.15;101754.41;4806805;29;20051;-81
2023/10/02 10:54:27;;;;;;;22.27;11.23;;;;;;;25.14;63.73;101750.78;4824586;29;20046;-83
2023/10/02 10:57:27;;;;;;;20.90;12.07;;;;;;;25.15;63.11;101751.59;4815489;29;20057;-82
2023/10/02 11:00:25;;;;;;;19.58;11.55;;;;;;;25.32;63.42;101751.34;4823834;29;20406;-82
2023/10/02 11:03:00;;;;;;;21.77;12.57;;;;;;;25.44;63.65;101747.69;4823499;29;20494;-82
2023/10/02 11:05:36;;;;;;;16.23;11.07;;;;;;;25.60;63.73;101750.59;4806951;29;20073;-81
2023/10/02 11:08:23;;;;;;;17.10;12.20;;;;;;;25.65;62.38;101740.31;4822461;29;20054;-80
2023/10/02 11:11:00;;;;;;;20.33;12.57;;;;;;;25.71;61.71;101739.69;4809060;29;20057;-79
2023/10/02 11:13:50;;;;;;;18.10;11.60;;;;;;;25.73;61.15;101734.56;4822786;29;20075;-80
2023/10/02 11:16:30;;;;;;;15.60;10.32;;;;;;;25.84;61.79;101745.22;4823500;29;20089;-80
2023/10/02 11:19:21;;;;;;;17.88;11.65;;;;;;;25.89;60.50;101740.19;4823495;29;20061;-81
2023/10/02 11:22:19;;;;;;;17.98;10.90;;;;;;;26.01;60.15;101733.69;4822825;29;20054;-80
2023/10/02 11:24:52;;;;;;;13.43;10.07;;;;;;;25.95;59.98;101728.72;4822104;29;20058;-80
2023/10/02 11:27:22;;;;;;;17.13;10.98;;;;;;;26.09;59.46;101726.28;4823199;29;20050;-80
2023/10/02 11:30:01;;;;;;;14.70;10.05;;;;;;;26.19;61.19;101722.13;4823329;29;20050;-80
2023/10/02 11:32:59;;;;;;;14.25;10.88;;;;;;;26.26;59.22;101719.56;4824164;29;20061;-81
2023/10/02 11:35:31;;;;;;;16.90;11.38;;;;;;;26.37;60.18;101717.03;4824154;29;20058;-81
2023/10/02 11:38:09;;;;;;;14.55;10.63;;;;;;;26.52;58.78;101714.56;4822770;29;20417;-81
2023/10/02 11:40:43;;;;;;;19.17;11.18;;;;;;;26.63;58.50;101714.84;4823580;29;20061;-83
2023/10/02 11:43:14;;;;;;;18.33;11.18;;;;;;;26.66;57.94;101705.69;4806860;29;20057;-82
2023/10/02 11:45:43;;;;;;;18.40;10.85;;;;;;;26.72;58.16;101706.25;4824313;29;20061;-82
2023/10/02 11:48:12;;;;;;;12.95;9.90;;;;;;;26.81;57.99;101704.88;4807570;29;20058;-83
2023/10/02 11:50:43;;;;;;;17.67;11.32;;;;;;;26.81;58.03;101690.00;4827807;29;20050;-81
2023/10/02 11:53:11;;;;;;;16.08;10.95;;;;;;;26.86;55.59;101694.50;4847887;29;20054;-81
2023/10/02 11:55:40;;;;;;;17.55;11.30;;;;;;;26.81;55.00;101692.81;4838754;29;20042;-82
2023/10/02 11:58:09;;;;;;;13.95;10.00;;;;;;;26.93;54.42;101691.91;4829842;29;20077;-83
2023/10/02 12:00:38;;;;;;;18.20;10.85;;;;;;;26.89;54.47;101682.56;4830677;29;20073;-81
2023/10/02 12:03:06;;;;;;;15.68;10.65;;;;;;;26.95;55.30;101675.50;4830229;29;20050;-82
2023/10/02 12:05:36;;;;;;;16.45;11.93;;;;;;;27.07;54.76;101668.94;4812347;29;20069;-82
2023/10/02 12:08:05;;;;;;;17.42;11.77;;;;;;;27.18;54.79;101671.97;4826366;29;20053;-81
2023/10/02 12:10:34;;;;;;;16.85;11.75;;;;;;;27.41;54.63;101677.66;4826415;29;20486;-82
2023/10/02 12:13:02;;;;;;;16.45;9.63;;;;;;;27.58;53.68;101668.00;4826956;29;20058;-82
2023/10/02 12:15:33;;;;;;;14.52;9.75;;;;;;;27.58;51.68;101668.00;4826293;29;20383;-81
2023/10/02 12:18:04;;;;;;;18.88;9.93;;;;;;;27.44;51.61;101662.88;4826040;29;20061;-82
2023/10/02 12:20:39;;;;;;;14.13;10.77;;;;;;;27.31;52.40;101658.59;4809748;29;20054;-81
2023/10/02 12:23:09;;;;;;;15.05;10.60;;;;;;;27.46;50.08;101662.53;4808801;29;20058;-81
2023/10/02 12:25:48;;;;;;;12.60;9.27;;;;;;;27.42;50.19;101667.25;4807667;29;20479;-81
2023/10/02 12:28:18;;;;;;;12.20;7.85;;;;;;;27.71;51.23;101662.22;4807570;29;20517;-83
2023/10/02 12:30:48;;;;;;;13.75;8.63;;;;;;;27.86;49.86;101661.28;4803531;29;20057;-80
2023/10/02 12:33:17;;;;;;;12.60;7.85;;;;;;;27.93;48.04;101643.72;4814587;29;20066;-79
2023/10/02 12:35:47;;;;;;;12.43;8.43;;;;;;;27.84;49.93;101645.97;4816396;29;20050;-81